Falls Creek, Australia
Current Conditions -  °F | °C
As of 9:00 AM on Sunday 26 Oct 2014 (Local Time) from YMAY Reporting Station
Clear Clear  
Wind Chill: 66°   Ceiling: Unl
Heat Index: 66°   Visibility: 6mi
Dew Point: 57°   Wind: 1mph
Humidity: 73%   Direction: 10°N
Pressure: 29.85"   Gusts: NA
Location:  36.87°S, 147.27°E
Report Text: YMAY 252200Z AUTO 01001KT 9999 // NCD 19/14 Q1011
Loading
Personal Weather Stations






























Interactive Weather Map
Tropical Storm Tracking
New forecast layout! Learn more

10-Day Weather Forecast

Advertisements
Track Severe Weather on mobile